createdAt,value
2019-03-04T00:01:22.263Z,99538.73
2019-03-04T00:03:53.669Z,99534.89
2019-03-04T00:06:24.978Z,99534.05
2019-03-04T00:08:56.291Z,99538.11
2019-03-04T00:11:27.549Z,99545.17
2019-03-04T00:13:58.882Z,99545.28
2019-03-04T00:16:32.068Z,99533.88
2019-03-04T00:19:03.524Z,99522.06
2019-03-04T00:21:34.746Z,99524.31
2019-03-04T00:24:06.081Z,99527.88
2019-03-04T00:26:37.427Z,99514.75
2019-03-04T00:29:08.765Z,99498.95
2019-03-04T00:31:45.531Z,99485.39
2019-03-04T00:34:17.480Z,99473.99
2019-03-04T00:36:48.712Z,99449.84
2019-03-04T00:39:19.951Z,99444.99
2019-03-04T00:41:51.408Z,99437.93
2019-03-04T00:44:22.691Z,99441.81
2019-03-04T00:46:53.921Z,99433.85
2019-03-04T00:49:26.231Z,99425.89
2019-03-04T00:51:57.478Z,99417.96
2019-03-04T00:54:28.807Z,99412.59
2019-03-04T00:57:00.145Z,99420.47
2019-03-04T00:59:31.499Z,99424.80
2019-03-04T01:02:02.673Z,99424.32
2019-03-04T01:04:33.987Z,99422.04
2019-03-04T01:07:05.370Z,99419.80
2019-03-04T01:09:36.720Z,99425.86
2019-03-04T01:12:07.976Z,99415.27
2019-03-04T01:14:39.326Z,99418.28
2019-03-04T01:17:10.654Z,99408.10
2019-03-04T01:19:42.034Z,99404.50
2019-03-04T01:22:13.375Z,99409.29
2019-03-04T01:24:44.695Z,99415.38
2019-03-04T01:27:15.929Z,99419.64
2019-03-04T01:29:47.262Z,99396.28
2019-03-04T01:32:18.464Z,99397.53
2019-03-04T01:34:49.739Z,99407.12
2019-03-04T01:37:21.004Z,99417.58
2019-03-04T01:39:52.255Z,99432.33
2019-03-04T01:42:23.609Z,99450.25
2019-03-04T01:44:54.976Z,99453.12
2019-03-04T01:47:26.401Z,99445.50
2019-03-04T01:49:57.768Z,99435.73
2019-03-04T01:52:29.147Z,99438.33
2019-03-04T01:55:00.591Z,99436.08
2019-03-04T01:57:31.903Z,99417.67
2019-03-04T02:00:03.243Z,99401.83
2019-03-04T02:02:35.379Z,99399.99
2019-03-04T02:05:07.114Z,99399.92
2019-03-04T02:07:38.475Z,99405.17
2019-03-04T02:10:12.163Z,99404.28
2019-03-04T02:12:43.513Z,99404.28
2019-03-04T02:15:16.326Z,99390.23
2019-03-04T02:17:47.632Z,99379.78
2019-03-04T02:20:19.092Z,99357.05
2019-03-04T02:22:50.392Z,99347.88
2019-03-04T02:25:37.571Z,99330.45
2019-03-04T02:28:08.785Z,99327.44
2019-03-04T02:30:40.195Z,99311.72
2019-03-04T02:33:11.443Z,99296.88
2019-03-04T02:35:42.791Z,99290.81
2019-03-04T02:38:14.077Z,99293.96
2019-03-04T02:40:45.374Z,99285.23
2019-03-04T02:43:16.682Z,99269.49
2019-03-04T02:45:47.958Z,99263.36
2019-03-04T02:48:19.211Z,99266.02
2019-03-04T02:50:50.490Z,99262.56
2019-03-04T02:53:21.839Z,99264.33
2019-03-04T02:55:53.249Z,99260.89
2019-03-04T02:58:24.502Z,99249.50
2019-03-04T03:00:55.859Z,99237.28
2019-03-04T03:03:27.109Z,99237.37
2019-03-04T03:05:58.700Z,99236.50
2019-03-04T03:08:29.888Z,99233.48
2019-03-04T03:11:01.244Z,99224.72
2019-03-04T03:13:32.743Z,99223.47
2019-03-04T03:16:04.193Z,99212.08
2019-03-04T03:18:36.661Z,99199.44
2019-03-04T03:21:07.993Z,99208.70
2019-03-04T03:23:39.266Z,99186.75
2019-03-04T03:26:10.510Z,99184.14
2019-03-04T03:28:41.792Z,99167.05
2019-03-04T03:31:13.059Z,99170.57
2019-03-04T03:33:45.292Z,99167.52
2019-03-04T03:36:16.598Z,99165.81
2019-03-04T03:38:47.953Z,99159.69
2019-03-04T03:41:19.209Z,99153.19
2019-03-04T03:43:50.511Z,99158.03
2019-03-04T03:46:21.974Z,99156.33
2019-03-04T03:48:53.340Z,99144.54
2019-03-04T03:51:24.567Z,99148.94
2019-03-04T03:53:55.814Z,99141.45
2019-03-04T03:56:27.078Z,99136.67
2019-03-04T03:58:58.612Z,99130.95
2019-03-04T04:01:29.901Z,99116.09
2019-03-04T04:04:01.207Z,99127.52
2019-03-04T04:06:32.458Z,99119.20
2019-03-04T04:09:04.537Z,99112.62
2019-03-04T04:11:37.038Z,99108.25
2019-03-04T04:14:08.302Z,99107.82
2019-03-04T04:16:39.530Z,99107.38
2019-03-04T04:19:10.892Z,99100.80
2019-03-04T04:21:42.165Z,99095.98
2019-03-04T04:24:13.410Z,99089.85
2019-03-04T04:26:44.636Z,99070.97
2019-03-04T04:29:15.950Z,99061.73
2019-03-04T04:31:47.234Z,99063.92
2019-03-04T04:34:18.618Z,99048.55
2019-03-04T04:36:49.897Z,99046.41
2019-03-04T04:39:21.112Z,99039.82
2019-03-04T04:41:52.477Z,99029.23
2019-03-04T04:44:23.921Z,99022.19
2019-03-04T04:46:56.579Z,99021.27
2019-03-04T04:49:32.768Z,99014.20
2019-03-04T04:52:03.999Z,99018.52
2019-03-04T04:54:35.396Z,99019.78
2019-03-04T04:57:07.161Z,99021.50
2019-03-04T04:59:38.456Z,99005.69
2019-03-04T05:02:09.702Z,98995.14
2019-03-04T05:04:40.946Z,99006.52
2019-03-04T05:07:12.254Z,99021.45
2019-03-04T05:09:44.583Z,98992.93
2019-03-04T05:12:15.901Z,99002.55
2019-03-04T05:14:47.214Z,99006.50
2019-03-04T05:17:18.500Z,98986.33
2019-03-04T05:19:49.737Z,98983.20
2019-03-04T05:22:20.982Z,98974.88
2019-03-04T05:24:52.442Z,98960.83
2019-03-04T05:27:23.678Z,98938.47
2019-03-04T05:29:54.995Z,98917.42
2019-03-04T05:32:26.299Z,98920.08
2019-03-04T05:34:57.559Z,98906.01
2019-03-04T05:37:28.842Z,98892.41
2019-03-04T05:40:00.333Z,98886.73
2019-03-04T05:42:31.684Z,98900.70
2019-03-04T05:45:02.989Z,98895.42
2019-03-04T05:47:34.366Z,98892.81
2019-03-04T05:50:06.506Z,98892.31
2019-03-04T05:52:37.978Z,98894.51
2019-03-04T05:55:12.508Z,98889.66
2019-03-04T05:57:44.012Z,98882.65
2019-03-04T06:00:17.776Z,98866.84
2019-03-04T06:02:49.295Z,98858.45
2019-03-04T06:05:20.538Z,98861.47
2019-03-04T06:07:55.048Z,98854.00
2019-03-04T06:10:26.421Z,98853.10
2019-03-04T06:12:59.003Z,98835.15
2019-03-04T06:15:30.284Z,98822.39
2019-03-04T06:18:01.601Z,98814.40
2019-03-04T06:20:33.017Z,98799.86
2019-03-04T06:23:04.465Z,98804.20
2019-03-04T06:25:36.017Z,98807.25
2019-03-04T06:28:07.461Z,98795.84
2019-03-04T06:30:38.719Z,98788.34
2019-03-04T06:33:10.025Z,98780.02
2019-03-04T06:35:41.317Z,98768.59
2019-03-04T06:38:12.674Z,98757.18
2019-03-04T06:40:43.925Z,98756.34
2019-03-04T06:43:15.202Z,98755.05
2019-03-04T06:45:46.608Z,98719.13
2019-03-04T06:48:17.926Z,98731.88
2019-03-04T06:50:53.793Z,98700.34
2019-03-04T06:53:58.154Z,98713.09
2019-03-04T06:56:42.656Z,98703.01
2019-03-04T06:59:46.674Z,98696.05
2019-03-04T07:02:18.285Z,98683.00
2019-03-04T07:05:29.495Z,98670.73
2019-03-04T07:08:00.786Z,98678.27
2019-03-04T07:10:32.089Z,98656.79
2019-03-04T07:13:03.414Z,98616.09
2019-03-04T07:15:34.714Z,98602.12
2019-03-04T07:18:05.949Z,98588.09
2019-03-04T07:20:37.226Z,98567.08
2019-03-04T07:23:08.568Z,98615.80
2019-03-04T07:25:39.818Z,98607.09
2019-03-04T07:28:11.169Z,98604.08
2019-03-04T07:30:42.460Z,98591.42
2019-03-04T07:33:13.906Z,98601.09
2019-03-04T07:35:45.224Z,98583.23
2019-03-04T07:38:52.491Z,98573.66
2019-03-04T07:41:23.822Z,98604.50
2019-03-04T07:43:55.287Z,98613.41
2019-03-04T07:46:26.595Z,98592.88
2019-03-04T07:48:59.056Z,98571.05
2019-03-04T07:51:30.366Z,98554.44
2019-03-04T07:54:01.753Z,98541.34
2019-03-04T07:56:33.019Z,98538.83
2019-03-04T07:59:04.503Z,98511.27
2019-03-04T08:01:35.729Z,98533.30
2019-03-04T08:04:07.068Z,98524.14
2019-03-04T08:06:38.297Z,98550.56
2019-03-04T08:09:50.520Z,98528.66
2019-03-04T08:13:03.612Z,98528.25
2019-03-04T08:15:46.337Z,98512.47
2019-03-04T08:18:17.792Z,98503.70
2019-03-04T08:20:49.135Z,98527.95
2019-03-04T08:23:20.442Z,98518.74
2019-03-04T08:25:52.835Z,98516.56
2019-03-04T08:28:24.143Z,98526.69
2019-03-04T08:30:55.396Z,98521.87
2019-03-04T08:33:26.623Z,98499.89
2019-03-04T08:35:58.006Z,98510.48
2019-03-04T08:38:29.282Z,98492.45
2019-03-04T08:41:00.862Z,98483.26
2019-03-04T08:43:32.323Z,98504.40
2019-03-04T08:46:03.634Z,98505.27
2019-03-04T08:48:34.852Z,98492.52
2019-03-04T08:51:06.122Z,98475.36
2019-03-04T08:53:37.449Z,98477.09
2019-03-04T08:56:08.764Z,98470.94
2019-03-04T08:58:40.086Z,98487.70
2019-03-04T09:01:11.369Z,98491.22
2019-03-04T09:03:42.641Z,98482.41
2019-03-04T09:06:14.013Z,98464.31
2019-03-04T09:08:45.270Z,98472.70
2019-03-04T09:11:16.624Z,98466.95
2019-03-04T09:13:47.882Z,98482.38
2019-03-04T09:16:19.218Z,98450.65
2019-03-04T09:18:50.470Z,98447.55
2019-03-04T09:21:22.915Z,98465.58
2019-03-04T09:23:54.174Z,98430.77
2019-03-04T09:26:25.435Z,98439.56
2019-03-04T09:28:56.781Z,98418.81
2019-03-04T09:31:28.280Z,98413.52
2019-03-04T09:33:59.687Z,98409.97
2019-03-04T09:36:30.931Z,98431.98
2019-03-04T09:39:02.178Z,98417.39
2019-03-04T09:41:35.453Z,98412.52
2019-03-04T09:44:06.791Z,98429.66
2019-03-04T09:46:38.038Z,98458.33
2019-03-04T09:49:09.463Z,98444.22
2019-03-04T09:51:40.744Z,98431.86
2019-03-04T09:54:11.998Z,98422.63
2019-03-04T09:56:43.414Z,98412.05
2019-03-04T09:59:14.638Z,98412.11
2019-03-04T10:01:53.069Z,98409.45
2019-03-04T10:05:01.415Z,98460.21
2019-03-04T10:08:11.610Z,98570.48
2019-03-04T10:11:11.167Z,98637.13
2019-03-04T10:14:08.590Z,98625.23
2019-03-04T10:17:08.517Z,98663.30
2019-03-04T10:20:16.834Z,98641.50
2019-03-04T10:23:12.461Z,98663.80
2019-03-04T10:26:23.896Z,98650.17
2019-03-04T10:29:20.776Z,98643.22
2019-03-04T10:32:42.673Z,98616.28
2019-03-04T10:35:48.259Z,98649.87
2019-03-04T10:38:49.218Z,98667.89
2019-03-04T10:41:39.183Z,98654.98
2019-03-04T10:45:12.927Z,98629.16
2019-03-04T10:47:44.483Z,98604.48
2019-03-04T10:50:17.208Z,98587.69
2019-03-04T10:52:48.740Z,98579.91
2019-03-04T10:55:20.307Z,98579.19
2019-03-04T10:57:51.756Z,98586.31
2019-03-04T11:00:23.500Z,98593.47
2019-03-04T11:02:55.037Z,98594.57
2019-03-04T11:05:26.709Z,98583.00
2019-03-04T11:07:58.015Z,98590.60
2019-03-04T11:10:29.625Z,98559.84
2019-03-04T11:13:01.166Z,98547.42
2019-03-04T11:15:34.118Z,98535.38
2019-03-04T11:18:05.633Z,98574.87
2019-03-04T11:20:37.043Z,98562.44
2019-03-04T11:23:08.405Z,98578.39
2019-03-04T11:25:39.692Z,98564.73
2019-03-04T11:28:11.183Z,98558.83
2019-03-04T11:30:42.496Z,98553.80
2019-03-04T11:33:13.786Z,98551.88
2019-03-04T11:35:45.035Z,98544.29
2019-03-04T11:38:39.960Z,98533.22
2019-03-04T11:41:13.907Z,98551.06
2019-03-04T11:43:45.304Z,98546.27
2019-03-04T11:46:17.699Z,98529.59
2019-03-04T11:48:49.073Z,98557.09
2019-03-04T11:51:20.430Z,98539.93
2019-03-04T11:53:51.663Z,98544.62
2019-03-04T11:56:23.122Z,98501.61
2019-03-04T11:58:54.651Z,98575.44
2019-03-04T12:01:35.468Z,98573.08
2019-03-04T12:04:06.825Z,98613.59
2019-03-04T12:06:38.106Z,98603.71
2019-03-04T12:09:15.268Z,98556.05
2019-03-04T12:11:46.615Z,98514.53
2019-03-04T12:14:17.960Z,98542.27
2019-03-04T12:16:50.006Z,98582.31
2019-03-04T12:19:21.648Z,98510.84
2019-03-04T12:21:52.977Z,98501.73
2019-03-04T12:24:24.350Z,98508.40
2019-03-04T12:26:56.793Z,98520.75
2019-03-04T12:29:28.111Z,98468.16
2019-03-04T12:32:21.435Z,98477.05
2019-03-04T12:34:52.817Z,98536.84
2019-03-04T12:37:24.094Z,98478.90
2019-03-04T12:39:55.355Z,98498.73
2019-03-04T12:42:26.595Z,98514.17
2019-03-04T12:44:58.087Z,98490.05
2019-03-04T12:47:29.319Z,98516.50
2019-03-04T12:50:00.649Z,98469.01
2019-03-04T12:52:33.183Z,98477.84
2019-03-04T12:55:04.719Z,98472.56
2019-03-04T12:57:36.010Z,98464.64
2019-03-04T13:00:10.155Z,98462.03
2019-03-04T13:02:41.741Z,98462.02
2019-03-04T13:05:13.932Z,98447.12
2019-03-04T13:07:45.465Z,98434.39
2019-03-04T13:10:16.702Z,98426.02
2019-03-04T13:12:47.921Z,98433.94
2019-03-04T13:15:23.155Z,98428.64
2019-03-04T13:17:54.558Z,98454.17
2019-03-04T13:20:25.884Z,98419.83
2019-03-04T13:22:57.130Z,98434.36
2019-03-04T13:25:28.437Z,98442.30
2019-03-04T13:28:07.727Z,98441.88
2019-03-04T13:30:33.187Z,98422.94
2019-03-04T13:33:04.467Z,98435.20
2019-03-04T13:35:36.761Z,98412.98
2019-03-04T13:38:08.082Z,98431.19
2019-03-04T13:40:39.479Z,98422.16
2019-03-04T13:43:10.745Z,98405.60
2019-03-04T13:45:41.987Z,98385.60
2019-03-04T13:48:13.299Z,98387.74
2019-03-04T13:50:44.575Z,98395.86
2019-03-04T13:53:15.870Z,98419.47
2019-03-04T13:55:47.141Z,98450.02
2019-03-04T13:58:18.466Z,98389.55
2019-03-04T14:00:49.704Z,98402.31
2019-03-04T14:03:21.003Z,98391.16
2019-03-04T14:05:52.364Z,98394.42
2019-03-04T14:08:23.691Z,98392.70
2019-03-04T14:10:55.017Z,98452.91
2019-03-04T14:13:26.315Z,98435.90
2019-03-04T14:15:57.752Z,98375.59
2019-03-04T14:18:29.024Z,98419.33
2019-03-04T14:21:00.299Z,98402.64
2019-03-04T14:23:31.614Z,98358.62
2019-03-04T14:26:02.838Z,98390.79
2019-03-04T14:28:34.405Z,98352.94
2019-03-04T14:31:06.720Z,98357.79
2019-03-04T14:33:38.104Z,98356.45
2019-03-04T14:36:09.620Z,98346.75
2019-03-04T14:38:40.836Z,98366.12
2019-03-04T14:41:12.585Z,98379.78
2019-03-04T14:43:44.390Z,98386.83
2019-03-04T14:46:24.746Z,98434.40
2019-03-04T14:48:56.047Z,98400.94
2019-03-04T14:51:27.280Z,98426.03
2019-03-04T14:53:58.553Z,98461.65
2019-03-04T14:56:30.044Z,98472.12
2019-03-04T14:59:10.623Z,98502.68
2019-03-04T15:01:34.604Z,98539.43
2019-03-04T15:04:06.370Z,98563.03
2019-03-04T15:06:37.828Z,98598.70
2019-03-04T15:09:13.790Z,98634.22
2019-03-04T15:11:45.115Z,98650.81
2019-03-04T15:14:16.667Z,98671.94
2019-03-04T15:16:47.981Z,98644.48
2019-03-04T15:19:19.307Z,98652.45
2019-03-04T15:21:50.530Z,98620.45
2019-03-04T15:24:21.876Z,98642.13
2019-03-04T15:26:53.216Z,98656.56
2019-03-04T15:29:24.591Z,98668.48
2019-03-04T15:31:55.811Z,98672.98
2019-03-04T15:34:27.172Z,98682.85
2019-03-04T15:36:58.414Z,98692.34
2019-03-04T15:39:29.638Z,98705.72
2019-03-04T15:42:04.332Z,98705.28
2019-03-04T15:44:35.574Z,98709.20
2019-03-04T15:47:06.984Z,98719.17
2019-03-04T15:49:38.359Z,98720.11
2019-03-04T15:52:09.830Z,98722.77
2019-03-04T15:54:41.326Z,98732.81
2019-03-04T15:57:13.096Z,98754.63
2019-03-04T15:59:44.420Z,98743.28
2019-03-04T16:02:16.750Z,98734.98
2019-03-04T16:04:48.034Z,98751.49
2019-03-04T16:07:19.568Z,98742.34
2019-03-04T16:09:50.859Z,98755.83
2019-03-04T16:12:23.310Z,98747.16
2019-03-04T16:14:54.653Z,98758.97
2019-03-04T16:17:25.961Z,98765.58
2019-03-04T16:19:57.277Z,98774.37
2019-03-04T16:22:28.598Z,98768.69
2019-03-04T16:24:59.965Z,98783.52
2019-03-04T16:27:31.543Z,98784.79
2019-03-04T16:30:02.907Z,98791.73
2019-03-04T16:32:34.416Z,98778.59
2019-03-04T16:35:07.354Z,98789.45
2019-03-04T16:37:38.789Z,98799.88
2019-03-04T16:40:13.054Z,98784.56
2019-03-04T16:42:44.439Z,98806.38
2019-03-04T16:45:16.723Z,98797.23
2019-03-04T16:47:48.761Z,98802.45
2019-03-04T16:50:20.165Z,98795.92
2019-03-04T16:52:51.963Z,98807.31
2019-03-04T16:55:23.228Z,98826.41
2019-03-04T16:57:54.608Z,98812.06
2019-03-04T17:00:26.113Z,98828.69
2019-03-04T17:02:57.820Z,98828.69
2019-03-04T17:05:29.427Z,98833.10
2019-03-04T17:08:00.689Z,98832.69
2019-03-04T17:10:32.039Z,98828.77
2019-03-04T17:13:03.507Z,98833.19
2019-03-04T17:15:35.091Z,98839.77
2019-03-04T17:18:06.888Z,98848.55
2019-03-04T17:20:38.506Z,98851.16
2019-03-04T17:23:10.965Z,98849.86
2019-03-04T17:25:44.342Z,98859.05
2019-03-04T17:28:16.689Z,98869.11
2019-03-04T17:30:48.071Z,98865.75
2019-03-04T17:33:19.641Z,98873.59
2019-03-04T17:35:50.905Z,98895.91
2019-03-04T17:38:23.766Z,98875.03
2019-03-04T17:40:56.044Z,98868.93
2019-03-04T17:43:27.734Z,98886.88
2019-03-04T17:45:58.979Z,98902.09
2019-03-04T17:48:30.646Z,98907.84
2019-03-04T17:51:03.086Z,98890.36
2019-03-04T17:53:34.394Z,98916.64
2019-03-04T17:56:07.503Z,98899.59
2019-03-04T17:58:39.316Z,98902.20
2019-03-04T18:01:11.705Z,98934.51
2019-03-04T18:03:44.042Z,98912.34
2019-03-04T18:06:15.278Z,98943.78
2019-03-04T18:08:46.941Z,98939.38
2019-03-04T18:11:18.738Z,98925.87
2019-03-04T18:13:50.268Z,98931.56
2019-03-04T18:16:21.968Z,98937.61
2019-03-04T18:18:53.431Z,98935.81
2019-03-04T18:21:24.716Z,98951.06
2019-03-04T18:23:58.458Z,98936.67
2019-03-04T18:26:33.826Z,98943.66
2019-03-04T18:29:18.048Z,98951.11
2019-03-04T18:32:38.915Z,98965.05
2019-03-04T18:36:06.621Z,98965.09
2019-03-04T18:39:04.396Z,98948.53
2019-03-04T18:41:56.414Z,98956.91
2019-03-04T18:44:53.289Z,98998.86
2019-03-04T18:48:12.105Z,99009.38
2019-03-04T18:50:43.537Z,98985.45
2019-03-04T18:53:14.866Z,98999.48
2019-03-04T18:55:46.290Z,99003.00
2019-03-04T18:58:21.507Z,99013.05
2019-03-04T19:00:52.901Z,99015.67
2019-03-04T19:03:32.692Z,99028.75
2019-03-04T19:06:13.050Z,99039.23
2019-03-04T19:08:49.642Z,99026.09
2019-03-04T19:11:23.770Z,99060.05
2019-03-04T19:13:59.255Z,99035.99
2019-03-04T19:16:32.135Z,99044.25
2019-03-04T19:19:03.494Z,99038.56
2019-03-04T19:21:34.833Z,99034.11
2019-03-04T19:24:07.911Z,99049.77
2019-03-04T19:26:39.431Z,99044.90
2019-03-04T19:29:10.937Z,99042.60
2019-03-04T19:31:42.429Z,99063.05
2019-03-04T19:34:13.858Z,99052.90
2019-03-04T19:36:45.213Z,99063.81
2019-03-04T19:39:16.654Z,99068.96
2019-03-04T19:41:48.112Z,99075.87
2019-03-04T19:44:19.375Z,99090.16
2019-03-04T19:46:50.688Z,99087.91
2019-03-04T19:49:22.075Z,99085.56
2019-03-04T19:51:53.401Z,99087.28
2019-03-04T19:54:26.667Z,99105.55
2019-03-04T19:56:57.969Z,99120.70
2019-03-04T19:59:29.307Z,99171.25
2019-03-04T20:02:02.175Z,99127.14
2019-03-04T20:04:34.931Z,99141.84
2019-03-04T20:07:06.345Z,99126.42
2019-03-04T20:09:37.725Z,99129.05
2019-03-04T20:12:09.407Z,99131.97
2019-03-04T20:14:40.652Z,99141.84
2019-03-04T20:17:12.056Z,99140.48
2019-03-04T20:19:43.435Z,99142.61
2019-03-04T20:22:14.904Z,99140.44
2019-03-04T20:24:46.329Z,99146.42
2019-03-04T20:27:17.639Z,99145.07
2019-03-04T20:29:49.101Z,99144.58
2019-03-04T20:32:20.920Z,99152.73
2019-03-04T20:34:52.308Z,99142.58
2019-03-04T20:37:24.138Z,99164.34
2019-03-04T20:39:55.614Z,99170.83
2019-03-04T20:42:28.277Z,99162.98
2019-03-04T20:45:00.895Z,99159.02
2019-03-04T20:47:32.491Z,99162.39
2019-03-04T20:50:04.123Z,99172.44
2019-03-04T20:52:36.476Z,99184.51
2019-03-04T20:55:08.415Z,99175.77
2019-03-04T20:57:40.074Z,99193.95
2019-03-04T21:00:14.542Z,99187.78
2019-03-04T21:02:46.120Z,99200.25
2019-03-04T21:05:17.598Z,99194.13
2019-03-04T21:07:49.089Z,99200.66
2019-03-04T21:10:20.518Z,99197.49
2019-03-04T21:12:52.695Z,99220.91
2019-03-04T21:15:24.947Z,99190.34
2019-03-04T21:17:59.835Z,99206.84
2019-03-04T21:20:34.567Z,99225.42
2019-03-04T21:23:08.134Z,99219.73
2019-03-04T21:25:52.719Z,99234.11
2019-03-04T21:28:45.717Z,99211.76
2019-03-04T21:31:38.381Z,99224.36
2019-03-04T21:34:47.098Z,99232.20
2019-03-04T21:37:23.138Z,99222.61
2019-03-04T21:39:54.787Z,99246.63
2019-03-04T21:42:37.595Z,99238.79
2019-03-04T21:45:51.720Z,99250.49
2019-03-04T21:48:38.786Z,99261.75
2019-03-04T21:51:38.473Z,99251.25
2019-03-04T21:54:10.257Z,99261.64
2019-03-04T21:57:21.894Z,99270.67
2019-03-04T21:59:53.304Z,99291.08
2019-03-04T22:02:29.258Z,99275.81
2019-03-04T22:05:03.390Z,99293.64
2019-03-04T22:07:37.339Z,99278.86
2019-03-04T22:10:11.414Z,99284.09
2019-03-04T22:12:43.591Z,99287.56
2019-03-04T22:15:15.006Z,99293.28
2019-03-04T22:17:46.336Z,99302.48
2019-03-04T22:20:18.720Z,99304.75
2019-03-04T22:22:49.938Z,99304.41
2019-03-04T22:25:21.653Z,99312.76
2019-03-04T22:27:52.929Z,99312.36
2019-03-04T22:30:24.611Z,99310.70
2019-03-04T22:32:55.900Z,99313.81
2019-03-04T22:35:27.215Z,99323.42
2019-03-04T22:37:58.652Z,99328.29
2019-03-04T22:40:30.021Z,99335.28
2019-03-04T22:43:01.461Z,99313.08
2019-03-04T22:45:32.682Z,99330.06
2019-03-04T22:48:03.953Z,99343.22
2019-03-04T22:50:35.283Z,99329.25
2019-03-04T22:53:06.571Z,99332.82
2019-03-04T22:55:38.414Z,99341.53
2019-03-04T22:58:09.709Z,99337.27
2019-03-04T23:01:39.217Z,99347.31
2019-03-04T23:04:22.136Z,99354.80
2019-03-04T23:07:00.858Z,99347.77
2019-03-04T23:09:34.899Z,99348.73
2019-03-04T23:12:16.887Z,99355.27
2019-03-04T23:14:49.550Z,99354.45
2019-03-04T23:17:20.797Z,99357.53
2019-03-04T23:19:52.120Z,99347.57
2019-03-04T23:22:23.431Z,99362.91
2019-03-04T23:24:55.630Z,99348.64
2019-03-04T23:27:26.978Z,99364.78
2019-03-04T23:29:58.233Z,99356.13
2019-03-04T23:32:29.519Z,99356.19
2019-03-04T23:35:00.669Z,99337.89
2019-03-04T23:37:31.978Z,99341.86
2019-03-04T23:40:03.210Z,99331.81
2019-03-04T23:42:34.625Z,99330.39
2019-03-04T23:45:07.898Z,99347.33
2019-03-04T23:47:39.264Z,99335.16
2019-03-04T23:50:18.898Z,99334.96
2019-03-04T23:52:50.251Z,99324.05
2019-03-04T23:55:21.521Z,99331.39
2019-03-04T23:57:53.218Z,99340.08
